Time,TemperatureF,DewpointF,PressureIn,WindDirection,WindDirectionDegrees,WindSpeedMPH,WindSpeedGustMPH,Humidity,HourlyPrecipIn,Conditions,Clouds,dailyrainin,SoftwareType,DateUTC
2013-08-15 00:12:00,68.0,61.0,30.02,North,0,0.0,2.0,79,0.00,,,1.43,,2013-08-15 04:12:00,
2013-08-15 00:23:00,68.0,61.0,30.02,North,0,0.0,2.0,79,0.00,,,1.43,,2013-08-15 04:23:00,
2013-08-15 00:32:00,68.0,61.0,30.02,North,0,0.0,2.0,79,0.00,,,1.43,,2013-08-15 04:32:00,
2013-08-15 00:52:00,68.0,61.0,30.01,North,0,0.0,2.0,78,0.00,,,1.43,,2013-08-15 04:52:00,
2013-08-15 01:22:00,68.0,61.0,30.02,North,0,0.0,7.0,78,0.00,,,1.06,,2013-08-15 05:22:00,
2013-08-15 01:52:00,68.0,61.0,30.03,North,0,0.0,1.0,78,0.00,,,0.93,,2013-08-15 05:52:00,
2013-08-15 02:11:00,68.0,61.0,30.03,North,0,0.0,4.0,78,0.00,,,0.76,,2013-08-15 06:11:00,
2013-08-15 02:21:00,68.0,61.0,30.03,North,0,0.0,4.0,78,0.00,,,0.76,,2013-08-15 06:21:00,
2013-08-15 02:52:00,67.0,61.0,30.02,North,0,0.0,5.0,80,0.00,,,0.73,,2013-08-15 06:52:00,
2013-08-15 03:02:00,67.0,61.0,30.02,North,0,0.0,5.0,80,0.00,,,0.73,,2013-08-15 07:02:00,
2013-08-15 03:21:00,67.0,61.0,30.01,NNE,31,1.0,8.0,82,0.01,,,0.47,,2013-08-15 07:21:00,
2013-08-15 03:32:00,67.0,61.0,30.01,NNE,31,1.0,8.0,82,0.01,,,0.47,,2013-08-15 07:32:00,
2013-08-15 03:42:00,67.0,61.0,30.01,NNE,31,1.0,8.0,82,0.01,,,0.47,,2013-08-15 07:42:00,
2013-08-15 03:52:00,67.0,61.0,30.01,NNE,31,1.0,8.0,82,0.01,,,0.47,,2013-08-15 07:52:00,
2013-08-15 04:21:00,66.0,61.0,30.02,NE,50,1.0,4.0,84,0.02,,,0.48,,2013-08-15 08:21:00,
2013-08-15 04:52:00,65.0,60.0,30.03,North,0,0.0,0.0,85,0.16,,,0.62,,2013-08-15 08:52:00,
2013-08-15 05:01:00,65.0,60.0,30.03,North,0,0.0,0.0,85,0.16,,,0.62,,2013-08-15 09:01:00,
2013-08-15 05:21:00,65.0,61.0,30.03,NE,53,1.0,4.0,86,0.30,,,0.78,,2013-08-15 09:21:00,
2013-08-15 05:53:00,64.0,60.0,30.03,North,0,0.0,1.0,86,0.24,,,0.80,,2013-08-15 09:53:00,
2013-08-15 06:12:00,64.0,60.0,30.03,ENE,58,1.0,6.0,87,0.13,,,0.83,,2013-08-15 10:12:00,
2013-08-15 06:22:00,64.0,60.0,30.03,ENE,58,1.0,6.0,87,0.13,,,0.83,,2013-08-15 10:22:00,
2013-08-15 06:52:00,64.0,60.0,30.05,NE,34,1.0,4.0,88,0.06,,,0.87,,2013-08-15 10:52:00,
2013-08-15 07:02:00,64.0,60.0,30.05,NE,34,1.0,4.0,88,0.06,,,0.87,,2013-08-15 11:02:00,
2013-08-15 07:12:00,64.0,60.0,30.05,NE,34,1.0,4.0,88,0.06,,,0.87,,2013-08-15 11:12:00,
2013-08-15 07:22:00,64.0,60.0,30.05,NE,34,1.0,4.0,88,0.06,,,0.87,,2013-08-15 11:22:00,
2013-08-15 07:50:00,64.0,60.0,30.06,ENE,59,1.0,7.0,88,0.04,,,0.94,,2013-08-15 11:50:00,
2013-08-15 07:52:00,64.0,60.0,30.06,NE,35,2.0,12.0,88,0.05,,,0.93,,2013-08-15 11:52:00,
2013-08-15 08:01:00,64.0,60.0,30.06,NE,35,2.0,12.0,88,0.05,,,0.93,,2013-08-15 12:01:00,
2013-08-15 08:21:00,64.0,60.0,30.06,ENE,59,1.0,7.0,88,0.04,,,0.94,,2013-08-15 12:21:00,
2013-08-15 08:31:00,64.0,60.0,30.06,ENE,59,1.0,7.0,88,0.04,,,0.94,,2013-08-15 12:31:00,
2013-08-15 09:21:00,64.0,61.0,30.06,ENE,63,2.0,10.0,89,0.01,,,0.95,,2013-08-15 13:21:00,
2013-08-15 09:52:00,64.0,61.0,30.08,ENE,65,1.0,11.0,89,0.02,,,0.97,,2013-08-15 13:52:00,
2013-08-15 10:22:00,64.0,61.0,30.06,NE,49,2.0,10.0,89,0.06,,,1.01,,2013-08-15 14:22:00,
2013-08-15 10:54:00,65.0,62.0,30.07,NNE,17,2.0,10.0,89,0.06,,,1.04,,2013-08-15 14:54:00,
2013-08-15 11:23:00,65.0,62.0,30.07,NE,47,1.0,5.0,89,0.08,,,1.09,,2013-08-15 15:23:00,
2013-08-15 11:54:00,66.0,63.0,30.08,NE,39,1.0,6.0,89,0.10,,,1.13,,2013-08-15 15:54:00,
2013-08-15 12:26:00,66.0,63.0,30.08,NNE,22,1.0,7.0,89,0.09,,,1.19,,2013-08-15 16:26:00,
2013-08-15 12:35:00,66.0,63.0,30.08,NNE,22,1.0,7.0,89,0.09,,,1.19,,2013-08-15 16:35:00,
2013-08-15 12:55:00,66.0,63.0,30.08,NE,46,1.0,7.0,89,0.07,,,1.19,,2013-08-15 16:55:00,
2013-08-15 13:31:00,66.0,-99.9,30.07,ENE,71,2.0,5.0,89,0.02,,,1.21,,2013-08-15 17:31:00,
2013-08-15 13:55:00,66.0,63.0,30.07,NE,55,1.0,6.0,89,0.03,,,1.22,,2013-08-15 17:55:00,
2013-08-15 14:36:00,-999.0,-99.9,30.05,NNE,31,2.0,6.0,-999,0.00,,,1.22,,2013-08-15 18:36:00,
2013-08-15 15:06:00,-999.0,-99.9,30.04,NE,49,4.0,11.0,-999,0.00,,,1.22,,2013-08-15 19:06:00,
2013-08-15 15:34:00,-999.0,-99.9,30.04,East,86,5.0,11.0,-999,-99.99,,,-99.99,,2013-08-15 19:34:00,
2013-08-15 16:13:00,69.0,65.0,30.03,ENE,57,2.0,12.0,87,0.00,,,0.80,,2013-08-15 20:13:00,
2013-08-15 16:32:00,69.0,64.0,30.03,ENE,63,4.0,7.0,85,0.00,,,0.77,,2013-08-15 20:32:00,
2013-08-15 16:55:00,69.0,64.0,30.03,NE,42,4.0,6.0,84,0.00,,,0.77,,2013-08-15 20:55:00,
2013-08-15 17:41:00,70.0,63.0,30.03,ENE,78,2.0,6.0,79,0.00,,,0.77,,2013-08-15 21:41:00,
2013-08-15 17:57:00,70.0,63.0,30.03,ENE,77,1.0,6.0,79,0.00,,,0.77,,2013-08-15 21:57:00,
2013-08-15 18:29:00,69.0,62.0,30.03,North,0,0.0,7.0,79,0.00,,,0.77,,2013-08-15 22:29:00,
2013-08-15 18:58:00,69.0,62.0,30.03,North,0,1.0,0.0,79,0.00,,,0.77,,2013-08-15 22:58:00,
2013-08-15 19:16:00,68.0,61.0,30.03,North,0,0.0,5.0,78,0.00,,,0.77,,2013-08-15 23:16:00,
2013-08-15 19:35:00,-999.0,-99.9,30.03,North,0,0.0,5.0,78,0.00,,,0.77,,2013-08-15 23:35:00,
2013-08-15 19:40:00,68.0,61.0,30.03,North,0,0.0,5.0,78,0.00,,,0.77,,2013-08-15 23:40:00,
2013-08-15 19:55:00,68.0,61.0,30.04,North,0,0.0,0.0,79,0.00,,,0.77,,2013-08-15 23:55:00,
2013-08-15 20:24:00,68.0,62.0,30.05,NE,56,1.0,4.0,81,0.01,,,0.78,,2013-08-16 00:24:00,
2013-08-15 20:52:00,67.0,62.0,30.06,NE,38,1.0,5.0,84,0.03,,,0.80,,2013-08-16 00:52:00,
2013-08-15 21:26:00,66.0,61.0,30.06,North,0,0.0,1.0,85,0.04,,,0.82,,2013-08-16 01:26:00,
2013-08-15 21:43:00,-999.0,-99.9,30.06,North,0,0.0,-999.0,-999,-99.99,,,-99.99,,2013-08-16 01:43:00,
2013-08-15 21:54:00,66.0,62.0,30.06,ENE,68,1.0,6.0,86,0.02,,,0.82,,2013-08-16 01:54:00,
2013-08-15 22:21:00,66.0,62.0,30.07,North,0,0.0,1.0,87,0.02,,,0.83,,2013-08-16 02:21:00,
2013-08-15 22:32:00,66.0,62.0,30.07,North,0,0.0,1.0,87,0.02,,,0.83,,2013-08-16 02:32:00,
2013-08-15 22:43:00,66.0,62.0,30.07,North,0,0.0,1.0,87,0.02,,,0.83,,2013-08-16 02:43:00,
2013-08-15 22:52:00,66.0,62.0,30.08,North,0,0.0,0.0,87,0.01,,,0.83,,2013-08-16 02:52:00,
2013-08-15 23:03:00,66.0,62.0,30.08,North,0,0.0,0.0,87,0.01,,,0.83,,2013-08-16 03:03:00,
2013-08-15 23:22:00,66.0,62.0,30.07,North,0,0.0,5.0,87,0.00,,,0.83,,2013-08-16 03:22:00,
2013-08-15 23:33:00,66.0,62.0,30.07,North,0,0.0,5.0,87,0.00,,,0.83,,2013-08-16 03:33:00,
2013-08-15 23:53:00,66.0,62.0,30.07,North,0,0.0,5.0,87,0.00,,,0.83,,2013-08-16 03:53:00,